Main page
METAR-TAF:

METAR-TAF

Airports :

Sania Ramel Airport

Tétouan, Morocco

latitude: 35-35N, longitude: 005-20W, elevation: 10 m

Current weather observation

The report was made 45 minutes ago, at 11:00 UTC
Wind 8 kt from the East/Northeast, varying between North/Northeast and East/Southeast
Temperature 26°C
Humidity 65%
Pressure 1016 hPa
Visibility: 7000 m
Few clouds at a height of 1000 ft
Scattered clouds at a height of 1600 ft

METAR: GMTN 231100Z 07008KT 030V120 7000 FEW010 SCT016 26/19 Q1016 NOSIG

Time: 12:45 (11:45 UTC)


TAF: missing

Weather observations and forecasts of more than 4000 airports (METAR and TAF reports).

The available stations are represented by yellow and red dots on the map.

Hover mouse over dot to see the name of the station.

Then click to see weather observations and forecasts.

To change the map : click on the green buttons with a black cross to zoom in, on the green button with a dash to zoom out, or on the green arrows for adjacent maps.


METAR-TAF: